createdAt,value
2023-04-02T00:00:19.781Z,99531.09
2023-04-02T00:03:23.268Z,99547.25
2023-04-02T00:06:30.474Z,99556.81
2023-04-02T00:09:37.848Z,99550.59
2023-04-02T00:12:40.721Z,99558.41
2023-04-02T00:15:47.550Z,99553.31
2023-04-02T00:18:53.833Z,99559.84
2023-04-02T00:21:57.910Z,99560.03
2023-04-02T00:25:07.914Z,99564.84
2023-04-02T00:28:20.124Z,99568.50
2023-04-02T00:31:23.442Z,99561.00
2023-04-02T00:34:31.742Z,99564.03
2023-04-02T00:37:39.497Z,99560.03
2023-04-02T00:40:42.835Z,99562.28
2023-04-02T00:43:47.354Z,99560.97
2023-04-02T00:46:51.337Z,99572.34
2023-04-02T00:50:01.176Z,99566.63
2023-04-02T00:53:11.737Z,99571.84
2023-04-02T00:56:22.093Z,99575.69
2023-04-02T01:00:08.445Z,99573.72
2023-04-02T01:03:17.159Z,99578.19
2023-04-02T01:06:21.004Z,99570.53
2023-04-02T01:10:01.851Z,99571.31
2023-04-02T01:13:25.121Z,99577.78
2023-04-02T01:16:31.149Z,99569.03
2023-04-02T01:19:58.638Z,99574.44
2023-04-02T01:23:35.544Z,99584.16
2023-04-02T01:27:02.306Z,99583.69
2023-04-02T01:30:07.388Z,99577.69
2023-04-02T01:33:12.435Z,99569.47
2023-04-02T01:36:32.147Z,99569.31
2023-04-02T01:39:54.485Z,99572.34
2023-04-02T01:43:12.989Z,99578.41
2023-04-02T01:46:31.944Z,99578.75
2023-04-02T01:49:34.715Z,99580.88
2023-04-02T01:52:41.678Z,99593.63
2023-04-02T01:55:54.615Z,99593.25
2023-04-02T01:58:59.441Z,99594.00
2023-04-02T02:02:07.607Z,99595.03
2023-04-02T02:05:16.397Z,99602.81
2023-04-02T02:08:30.467Z,99606.38
2023-04-02T02:11:36.532Z,99601.78
2023-04-02T02:14:47.775Z,99602.38
2023-04-02T02:17:59.445Z,99600.66
2023-04-02T02:21:07.889Z,99605.28
2023-04-02T02:24:26.381Z,99603.78
2023-04-02T02:27:30.741Z,99601.63
2023-04-02T02:30:54.366Z,99607.03
2023-04-02T02:34:06.331Z,99599.66
2023-04-02T02:37:18.440Z,99599.13
2023-04-02T02:40:29.793Z,99603.91
2023-04-02T02:43:35.227Z,99603.69
2023-04-02T02:46:42.884Z,99605.22
2023-04-02T02:49:51.438Z,99600.22
2023-04-02T02:52:59.112Z,99608.06
2023-04-02T02:56:05.463Z,99601.72
2023-04-02T02:59:17.093Z,99602.97
2023-04-02T03:02:20.593Z,99600.75
2023-04-02T03:05:26.550Z,99596.34
2023-04-02T03:08:57.057Z,99596.94
2023-04-02T03:12:24.731Z,99598.88
2023-04-02T03:16:04.758Z,99604.97
2023-04-02T03:19:23.440Z,99602.84
2023-04-02T03:22:47.365Z,99610.00
2023-04-02T03:26:12.708Z,99609.81
2023-04-02T03:29:25.632Z,99613.84
2023-04-02T03:32:33.323Z,99613.81
2023-04-02T03:35:39.571Z,99613.81
2023-04-02T03:39:12.225Z,99619.44
2023-04-02T03:42:21.645Z,99613.03
2023-04-02T03:45:34.073Z,99613.19
2023-04-02T03:48:44.068Z,99610.69
2023-04-02T03:52:06.111Z,99614.22
2023-04-02T03:55:16.005Z,99622.78
2023-04-02T03:58:41.251Z,99629.19
2023-04-02T04:02:19.648Z,99630.78
2023-04-02T04:05:36.491Z,99632.69
2023-04-02T04:09:00.106Z,99641.81
2023-04-02T04:12:21.221Z,99643.03
2023-04-02T04:15:40.988Z,99651.31
2023-04-02T04:18:57.018Z,99651.63
2023-04-02T04:22:19.735Z,99656.09
2023-04-02T04:25:30.111Z,99655.63
2023-04-02T04:29:05.623Z,99655.44
2023-04-02T04:32:34.211Z,99663.28
2023-04-02T04:35:57.656Z,99665.13
2023-04-02T04:39:21.533Z,99663.09
2023-04-02T04:42:33.302Z,99661.16
2023-04-02T04:45:51.653Z,99650.78
2023-04-02T04:49:06.484Z,99657.44
2023-04-02T04:52:16.437Z,99663.09
2023-04-02T04:55:29.741Z,99657.31
2023-04-02T04:58:48.627Z,99659.09
2023-04-02T05:02:05.012Z,99655.72
2023-04-02T05:05:21.854Z,99661.06
2023-04-02T05:08:36.406Z,99660.34
2023-04-02T05:11:46.550Z,99666.06
2023-04-02T05:15:32.826Z,99672.03
2023-04-02T05:18:45.421Z,99670.59
2023-04-02T05:22:26.156Z,99685.06
2023-04-02T05:25:31.134Z,99681.00
2023-04-02T05:28:45.267Z,99681.06
2023-04-02T05:32:13.851Z,99679.06
2023-04-02T05:35:20.577Z,99683.63
2023-04-02T05:38:32.525Z,99690.97
2023-04-02T05:41:46.012Z,99683.41
2023-04-02T05:45:23.947Z,99694.25
2023-04-02T05:48:38.002Z,99703.56
2023-04-02T05:51:45.551Z,99700.53
2023-04-02T05:54:59.797Z,99700.94
2023-04-02T05:58:33.965Z,99705.19
2023-04-02T06:01:51.451Z,99709.56
2023-04-02T06:05:12.650Z,99720.91
2023-04-02T06:08:19.532Z,99707.28
2023-04-02T06:11:42.870Z,99724.09
2023-04-02T06:14:47.848Z,99724.06
2023-04-02T06:17:52.579Z,99712.41
2023-04-02T06:20:56.679Z,99703.81
2023-04-02T06:24:04.567Z,99717.91
2023-04-02T06:27:15.236Z,99715.38
2023-04-02T06:30:30.241Z,99713.25
2023-04-02T06:33:33.432Z,99713.59
2023-04-02T06:36:36.440Z,99708.31
2023-04-02T06:39:43.159Z,99721.28
2023-04-02T06:42:48.428Z,99744.28
2023-04-02T06:46:34.732Z,99726.69
2023-04-02T06:50:05.809Z,99730.41
2023-04-02T06:53:21.809Z,99735.31
2023-04-02T06:56:34.687Z,99730.25
2023-04-02T06:59:38.289Z,99736.56
2023-04-02T07:02:46.746Z,99728.22
2023-04-02T07:05:49.748Z,99733.31
2023-04-02T07:08:53.239Z,99734.22
2023-04-02T07:11:58.183Z,99742.13
2023-04-02T07:15:01.693Z,99733.63
2023-04-02T07:18:05.407Z,99736.47
2023-04-02T07:21:09.800Z,99758.81
2023-04-02T07:24:12.572Z,99742.28
2023-04-02T07:27:15.939Z,99737.31
2023-04-02T07:30:19.495Z,99745.59
2023-04-02T07:33:28.900Z,99757.53
2023-04-02T07:36:31.882Z,99749.94
2023-04-02T07:39:36.945Z,99754.94
2023-04-02T07:42:41.814Z,99767.19
2023-04-02T07:45:44.839Z,99759.38
2023-04-02T07:48:47.923Z,99772.91
2023-04-02T07:51:52.136Z,99780.31
2023-04-02T07:54:55.808Z,99778.47
2023-04-02T07:57:59.864Z,99780.19
2023-04-02T08:01:04.471Z,99778.94
2023-04-02T08:04:19.571Z,99770.03
2023-04-02T08:07:22.186Z,99776.63
2023-04-02T08:10:24.987Z,99779.81
2023-04-02T08:13:28.274Z,99781.53
2023-04-02T08:17:07.090Z,99791.13
2023-04-02T08:20:19.824Z,99788.06
2023-04-02T08:23:22.535Z,99795.63
2023-04-02T08:26:26.150Z,99795.28
2023-04-02T08:29:32.446Z,99797.03
2023-04-02T08:32:35.677Z,99799.75
2023-04-02T08:35:39.049Z,99805.47
2023-04-02T08:38:42.987Z,99813.97
2023-04-02T08:41:58.438Z,99818.03
2023-04-02T08:45:25.259Z,99800.91
2023-04-02T08:48:32.761Z,99811.00
2023-04-02T08:51:36.879Z,99801.69
2023-04-02T08:54:43.762Z,99815.91
2023-04-02T08:58:09.444Z,99815.28
2023-04-02T09:01:51.821Z,99815.81
2023-04-02T09:05:00.369Z,99819.44
2023-04-02T09:08:07.912Z,99818.06
2023-04-02T09:11:52.550Z,99812.94
2023-04-02T09:14:58.349Z,99819.13
2023-04-02T09:18:16.828Z,99819.66
2023-04-02T09:21:30.955Z,99824.97
2023-04-02T09:24:34.248Z,99825.25
2023-04-02T09:27:36.924Z,99822.38
2023-04-02T09:30:54.844Z,99817.81
2023-04-02T09:33:57.780Z,99821.72
2023-04-02T09:37:25.442Z,99828.84
2023-04-02T09:40:32.298Z,99845.34
2023-04-02T09:43:37.100Z,99848.28
2023-04-02T09:46:59.589Z,99848.03
2023-04-02T09:50:21.427Z,99845.25
2023-04-02T09:53:35.601Z,99831.56
2023-04-02T09:56:41.245Z,99848.16
2023-04-02T09:59:44.466Z,99841.41
2023-04-02T10:03:04.501Z,99847.16
2023-04-02T10:06:11.469Z,99851.66
2023-04-02T10:09:28.902Z,99855.03
2023-04-02T10:12:41.562Z,99846.31
2023-04-02T10:15:57.772Z,99850.53
2023-04-02T10:19:22.341Z,99848.69
2023-04-02T10:22:28.637Z,99851.63
2023-04-02T10:25:41.540Z,99842.69
2023-04-02T10:29:06.884Z,99849.84
2023-04-02T10:32:23.625Z,99844.28
2023-04-02T10:35:38.599Z,99837.47
2023-04-02T10:39:05.248Z,99845.09
2023-04-02T10:42:20.120Z,99840.88
2023-04-02T10:45:45.843Z,99841.44
2023-04-02T10:48:58.618Z,99841.09
2023-04-02T10:52:20.081Z,99835.41
2023-04-02T10:55:28.088Z,99842.81
2023-04-02T10:58:33.638Z,99828.06
2023-04-02T11:01:41.722Z,99835.72
2023-04-02T11:04:47.106Z,99835.50
2023-04-02T11:08:18.380Z,99831.69
2023-04-02T11:11:43.170Z,99833.13
2023-04-02T11:14:46.201Z,99832.13
2023-04-02T11:17:49.407Z,99831.38
2023-04-02T11:21:00.932Z,99845.53
2023-04-02T11:24:05.307Z,99819.75
2023-04-02T11:27:23.722Z,99824.63
2023-04-02T11:30:27.725Z,99830.34
2023-04-02T11:33:38.161Z,99816.50
2023-04-02T11:36:50.928Z,99812.53
2023-04-02T11:39:57.391Z,99813.41
2023-04-02T11:43:33.038Z,99814.19
2023-04-02T11:46:40.940Z,99819.53
2023-04-02T11:49:58.915Z,99812.53
2023-04-02T11:53:21.648Z,99807.75
2023-04-02T11:56:50.582Z,99818.03
2023-04-02T12:00:14.656Z,99801.59
2023-04-02T12:03:28.419Z,99798.94
2023-04-02T12:06:47.304Z,99801.25
2023-04-02T12:09:55.542Z,99800.78
2023-04-02T12:13:01.561Z,99802.69
2023-04-02T12:16:04.608Z,99798.66
2023-04-02T12:19:09.742Z,99800.91
2023-04-02T12:22:21.740Z,99791.69
2023-04-02T12:25:34.294Z,99793.06
2023-04-02T12:28:38.240Z,99780.84
2023-04-02T12:31:48.558Z,99787.97
2023-04-02T12:34:53.156Z,99785.34
2023-04-02T12:37:58.048Z,99784.22
2023-04-02T12:41:03.887Z,99777.38
2023-04-02T12:44:18.588Z,99783.53
2023-04-02T12:47:22.251Z,99782.22
2023-04-02T12:50:24.981Z,99771.13
2023-04-02T12:53:36.432Z,99778.84
2023-04-02T12:56:39.686Z,99771.16
2023-04-02T12:59:43.852Z,99769.13
2023-04-02T13:02:49.432Z,99769.75
2023-04-02T13:05:57.458Z,99770.03
2023-04-02T13:09:03.112Z,99781.91
2023-04-02T13:12:34.034Z,99787.75
2023-04-02T13:15:37.299Z,99792.94
2023-04-02T13:18:40.495Z,99779.66
2023-04-02T13:21:45.390Z,99764.00
2023-04-02T13:24:48.510Z,99769.63
2023-04-02T13:27:53.842Z,99773.63
2023-04-02T13:30:56.439Z,99770.38
2023-04-02T13:34:00.268Z,99778.72
2023-04-02T13:37:03.780Z,99777.50
2023-04-02T13:40:09.347Z,99779.72
2023-04-02T13:43:20.661Z,99795.13
2023-04-02T13:46:27.892Z,99778.31
2023-04-02T13:49:32.113Z,99778.28
2023-04-02T13:52:34.883Z,99779.13
2023-04-02T13:55:40.671Z,99769.56
2023-04-02T13:58:45.965Z,99771.19
2023-04-02T14:01:51.683Z,99760.13
2023-04-02T14:05:31.967Z,99766.50
2023-04-02T14:09:01.751Z,99769.50
2023-04-02T14:12:26.920Z,99772.41
2023-04-02T14:15:51.014Z,99770.97
2023-04-02T14:18:56.431Z,99781.91
2023-04-02T14:22:33.284Z,99780.72
2023-04-02T14:26:05.562Z,99785.06
2023-04-02T14:29:22.001Z,99782.78
2023-04-02T14:33:05.402Z,99805.88
2023-04-02T14:36:38.740Z,99815.47
2023-04-02T14:40:13.548Z,99808.25
2023-04-02T14:43:24.523Z,99821.16
2023-04-02T14:46:31.017Z,99831.84
2023-04-02T14:49:41.861Z,99849.56
2023-04-02T14:52:51.871Z,99870.44
2023-04-02T14:55:59.492Z,99869.81
2023-04-02T14:59:21.542Z,99865.78
2023-04-02T15:02:40.312Z,99880.47
2023-04-02T15:05:58.290Z,99878.47
2023-04-02T15:09:19.772Z,99896.59
2023-04-02T15:12:27.079Z,99903.06
2023-04-02T15:15:49.144Z,99911.41
2023-04-02T15:18:55.490Z,99910.97
2023-04-02T15:22:14.384Z,99935.78
2023-04-02T15:25:33.802Z,99934.28
2023-04-02T15:28:46.553Z,99926.75
2023-04-02T15:31:51.985Z,99918.50
2023-04-02T15:35:08.791Z,99923.91
2023-04-02T15:38:29.114Z,99918.94
2023-04-02T15:41:55.782Z,99917.84
2023-04-02T15:45:21.477Z,99914.34
2023-04-02T15:48:36.319Z,99907.56
2023-04-02T15:51:58.285Z,99906.94
2023-04-02T15:55:19.110Z,99901.56
2023-04-02T15:58:31.075Z,99896.78
2023-04-02T16:01:59.631Z,99895.13
2023-04-02T16:05:09.470Z,99900.31
2023-04-02T16:08:29.043Z,99895.31
2023-04-02T16:11:33.648Z,99894.19
2023-04-02T16:14:49.056Z,99902.25
2023-04-02T16:18:01.660Z,99907.66
2023-04-02T16:21:04.686Z,99908.94
2023-04-02T16:24:14.189Z,99904.81
2023-04-02T16:27:31.811Z,99916.88
2023-04-02T16:30:46.760Z,99928.69
2023-04-02T16:34:26.977Z,99928.38
2023-04-02T16:37:48.910Z,99935.50
2023-04-02T16:41:09.880Z,99942.25
2023-04-02T16:44:21.283Z,99948.00
2023-04-02T16:47:46.149Z,99953.22
2023-04-02T16:51:17.738Z,99959.28
2023-04-02T16:54:31.123Z,99959.81
2023-04-02T16:57:43.135Z,99955.97
2023-04-02T17:00:54.073Z,99965.09
2023-04-02T17:04:15.853Z,99978.25
2023-04-02T17:07:40.740Z,99982.19
2023-04-02T17:11:01.193Z,99983.25
2023-04-02T17:14:35.989Z,99991.94
2023-04-02T17:17:39.273Z,99991.75
2023-04-02T17:20:42.841Z,100002.97
2023-04-02T17:27:03.771Z,99997.69
2023-04-02T17:30:17.370Z,100009.84
2023-04-02T17:33:22.125Z,100011.59
2023-04-02T17:36:49.122Z,100007.59
2023-04-02T17:40:20.798Z,100022.22
2023-04-02T17:43:46.162Z,100023.31
2023-04-02T17:47:03.398Z,100034.53
2023-04-02T17:50:47.735Z,100034.44
2023-04-02T17:54:14.798Z,100044.81
2023-04-02T17:57:47.386Z,100048.81
2023-04-02T18:01:11.337Z,100058.84
2023-04-02T18:04:53.633Z,100054.66
2023-04-02T18:07:56.480Z,100066.94
2023-04-02T18:11:04.900Z,100067.88
2023-04-02T18:14:32.996Z,100075.63
2023-04-02T18:17:45.641Z,100076.97
2023-04-02T18:21:16.811Z,100077.00
2023-04-02T18:24:42.810Z,100091.25
2023-04-02T18:27:57.182Z,100101.38
2023-04-02T18:31:13.513Z,100114.94
2023-04-02T18:34:35.490Z,100118.19
2023-04-02T18:38:02.244Z,100123.13
2023-04-02T18:41:29.093Z,100126.97
2023-04-02T18:44:49.344Z,100135.44
2023-04-02T18:48:01.142Z,100130.78
2023-04-02T18:51:05.856Z,100149.53
2023-04-02T18:54:09.529Z,100150.34
2023-04-02T18:57:19.967Z,100160.25
2023-04-02T19:00:31.357Z,100156.47
2023-04-02T19:03:53.555Z,100169.19
2023-04-02T19:07:19.424Z,100175.22
2023-04-02T19:10:44.493Z,100179.59
2023-04-02T19:13:49.074Z,100182.53
2023-04-02T19:17:07.539Z,100168.94
2023-04-02T19:20:25.640Z,100178.97
2023-04-02T19:23:56.132Z,100177.94
2023-04-02T19:27:08.184Z,100191.28
2023-04-02T19:30:41.278Z,100205.69
2023-04-02T19:34:11.087Z,100208.03
2023-04-02T19:37:30.731Z,100204.91
2023-04-02T19:41:04.095Z,100207.91
2023-04-02T19:44:13.037Z,100216.66
2023-04-02T19:47:18.729Z,100223.91
2023-04-02T19:50:22.632Z,100226.19
2023-04-02T19:53:25.728Z,100227.25
2023-04-02T19:56:29.279Z,100235.88
2023-04-02T19:59:32.722Z,100239.63
2023-04-02T20:02:36.734Z,100240.03
2023-04-02T20:05:39.564Z,100245.31
2023-04-02T20:08:42.452Z,100250.00
2023-04-02T20:11:46.760Z,100264.41
2023-04-02T20:14:49.518Z,100265.56
2023-04-02T20:17:52.820Z,100265.28
2023-04-02T20:20:56.378Z,100280.47
2023-04-02T20:23:58.956Z,100281.78
2023-04-02T20:27:01.580Z,100284.66
2023-04-02T20:30:05.188Z,100288.75
2023-04-02T20:33:08.181Z,100293.41
2023-04-02T20:36:13.026Z,100289.91
2023-04-02T20:39:19.484Z,100294.63
2023-04-02T20:42:22.365Z,100291.06
2023-04-02T20:45:27.893Z,100305.00
2023-04-02T20:48:32.496Z,100312.13
2023-04-02T20:51:35.800Z,100316.13
2023-04-02T20:54:53.644Z,100329.06
2023-04-02T20:57:56.536Z,100331.16
2023-04-02T21:01:15.715Z,100336.44
2023-04-02T21:04:19.314Z,100350.16
2023-04-02T21:07:21.911Z,100348.69
2023-04-02T21:10:25.477Z,100353.88
2023-04-02T21:13:30.944Z,100360.63
2023-04-02T21:16:34.927Z,100355.94
2023-04-02T21:19:38.437Z,100358.47
2023-04-02T21:22:41.244Z,100367.84
2023-04-02T21:25:55.561Z,100371.97
2023-04-02T21:28:58.810Z,100363.81
2023-04-02T21:32:08.324Z,100380.97
2023-04-02T21:35:17.751Z,100372.41
2023-04-02T21:38:20.478Z,100386.38
2023-04-02T21:41:26.719Z,100388.63
2023-04-02T21:44:29.210Z,100389.13
2023-04-02T21:47:32.599Z,100385.75
2023-04-02T21:50:35.612Z,100392.56
2023-04-02T21:53:39.158Z,100397.19
2023-04-02T21:56:44.821Z,100397.97
2023-04-02T21:59:47.520Z,100398.06
2023-04-02T22:02:50.107Z,100407.16
2023-04-02T22:06:11.887Z,100403.91
2023-04-02T22:09:21.734Z,100407.72
2023-04-02T22:12:25.516Z,100406.31
2023-04-02T22:15:32.138Z,100414.66
2023-04-02T22:18:35.209Z,100411.97
2023-04-02T22:21:38.525Z,100413.31
2023-04-02T22:24:41.162Z,100417.63
2023-04-02T22:27:44.018Z,100418.22
2023-04-02T22:30:48.827Z,100421.19
2023-04-02T22:33:53.603Z,100435.50
2023-04-02T22:36:56.790Z,100430.06
2023-04-02T22:40:00.995Z,100433.63
2023-04-02T22:43:03.676Z,100437.88
2023-04-02T22:46:09.424Z,100433.53
2023-04-02T22:49:19.138Z,100447.88
2023-04-02T22:52:22.840Z,100449.59
2023-04-02T22:55:27.066Z,100436.91
2023-04-02T22:58:30.025Z,100452.59
2023-04-02T23:01:36.673Z,100458.56
2023-04-02T23:04:41.285Z,100462.28
2023-04-02T23:07:44.263Z,100464.81
2023-04-02T23:10:46.843Z,100462.91
2023-04-02T23:13:52.766Z,100464.03
2023-04-02T23:16:55.521Z,100463.53
2023-04-02T23:19:58.313Z,100461.28
2023-04-02T23:23:01.111Z,100466.66
2023-04-02T23:26:11.988Z,100469.13
2023-04-02T23:29:15.003Z,100473.16
2023-04-02T23:32:19.439Z,100465.41
2023-04-02T23:35:22.956Z,100464.00
2023-04-02T23:38:26.739Z,100475.38
2023-04-02T23:41:30.791Z,100461.84
2023-04-02T23:44:33.587Z,100464.34
2023-04-02T23:47:36.995Z,100471.09
2023-04-02T23:50:40.467Z,100473.75
2023-04-02T23:53:43.553Z,100475.38
2023-04-02T23:56:46.188Z,100486.19
2023-04-02T23:59:49.430Z,100479.69
